Time;durP1;ratioP1;P1;durP2;ratioP2;P2;SDS_P1;SDS_P2;PMS_P1;PMS_P2;Temp;Humidity;BMP_temperature;BMP_pressure;BME280_temperature;BME280_humidity;BME280_pressure;Samples;Min_cycle;Max_cycle;Signal;HPM_P1;HPM_P2
2023/12/03 00:01:07;;;;;;;;;;;25.10;94.90;;;;;;5094209;28;19912;-69
2023/12/03 00:03:33;;;;;;;;;;;25.20;94.80;;;;;;5094293;28;19912;-69
2023/12/03 00:06:00;;;;;;;;;;;25.30;94.40;;;;;;5094179;28;19908;-70
2023/12/03 00:08:27;;;;;;;;;;;25.40;94.50;;;;;;5093934;28;19955;-70
2023/12/03 00:10:53;;;;;;;;;;;25.50;95.10;;;;;;5094069;28;19908;-68
2023/12/03 00:13:20;;;;;;;;;;;25.60;94.30;;;;;;5093708;28;19908;-67
2023/12/03 00:15:47;;;;;;;;;;;25.60;95.20;;;;;;5093831;28;19920;-69
2023/12/03 00:18:14;;;;;;;;;;;25.70;95.90;;;;;;5093792;28;19965;-69
2023/12/03 00:20:40;;;;;;;;;;;25.80;95.60;;;;;;5093856;28;19908;-73
2023/12/03 00:23:07;;;;;;;;;;;25.90;98.00;;;;;;5093742;28;19915;-72
2023/12/03 00:25:33;;;;;;;;;;;26.00;99.30;;;;;;5093909;28;19975;-74
2023/12/03 00:28:00;;;;;;;;;;;26.10;99.60;;;;;;5093442;28;19908;-67
2023/12/03 00:30:27;;;;;;;;;;;26.10;99.60;;;;;;5075484;28;19912;-72
2023/12/03 00:32:53;;;;;;;;;;;26.10;99.50;;;;;;5093479;28;20387;-71
2023/12/03 00:35:21;;;;;;;;;;;26.20;99.30;;;;;;5093613;28;19992;-73
2023/12/03 00:37:47;;;;;;;;;;;26.30;99.20;;;;;;5093258;28;19916;-66
2023/12/03 00:40:14;;;;;;;;;;;26.20;99.30;;;;;;5093356;28;20432;-69
2023/12/03 00:42:40;;;;;;;;;;;26.20;99.40;;;;;;5093250;28;20370;-69
2023/12/03 00:45:07;;;;;;;;;;;26.40;98.80;;;;;;5093427;28;19914;-69
2023/12/03 00:47:34;;;;;;;;;;;26.40;99.00;;;;;;5093279;28;19919;-69
2023/12/03 00:50:01;;;;;;;;;;;26.50;99.30;;;;;;5093304;28;19961;-70
2023/12/03 00:52:27;;;;;;;;;;;26.70;99.00;;;;;;5092709;28;19924;-68
2023/12/03 00:54:54;;;;;;;;;;;26.70;99.00;;;;;;5092945;28;19920;-70
2023/12/03 00:57:24;;;;;;;;;;;26.70;99.20;;;;;;5092210;28;20213;-70
2023/12/03 00:59:51;;;;;;;;;;;26.80;98.80;;;;;;5092994;28;19908;-69
2023/12/03 01:02:17;;;;;;;;;;;26.90;99.40;;;;;;5093249;28;19990;-68
2023/12/03 01:04:44;;;;;;;;;;;27.00;99.30;;;;;;5092876;28;19908;-70
2023/12/03 01:07:11;;;;;;;;;;;27.10;99.10;;;;;;5092983;28;19905;-70
2023/12/03 01:09:37;;;;;;;;;;;27.20;99.20;;;;;;5092966;28;19912;-73
2023/12/03 01:12:04;;;;;;;;;;;27.20;98.90;;;;;;5092994;28;19972;-70
2023/12/03 01:14:31;;;;;;;;;;;27.10;98.30;;;;;;5092611;28;19916;-72
2023/12/03 01:16:57;;;;;;;;;;;27.10;98.10;;;;;;5092913;28;19912;-70
2023/12/03 01:19:24;;;;;;;;;;;27.10;98.40;;;;;;5092717;28;19931;-69
2023/12/03 01:21:50;;;;;;;;;;;27.30;97.50;;;;;;5092675;28;19910;-67
2023/12/03 01:24:17;;;;;;;;;;;27.50;97.20;;;;;;5092931;28;19939;-70
2023/12/03 01:26:44;;;;;;;;;;;27.60;96.40;;;;;;5092948;28;19919;-71
2023/12/03 01:29:11;;;;;;;;;;;27.70;96.80;;;;;;5092723;28;20050;-67
2023/12/03 01:31:38;;;;;;;;;;;27.90;96.30;;;;;;5092755;28;20360;-68
2023/12/03 01:34:05;;;;;;;;;;;27.90;95.50;;;;;;5092672;28;19919;-68
2023/12/03 01:36:31;;;;;;;;;;;27.90;95.40;;;;;;5092667;28;20392;-67
2023/12/03 01:38:58;;;;;;;;;;;28.00;95.90;;;;;;5093630;28;19998;-70
2023/12/03 01:41:25;;;;;;;;;;;28.20;96.20;;;;;;5096697;28;19908;-68
2023/12/03 01:43:52;;;;;;;;;;;28.30;95.10;;;;;;5096701;28;19958;-67
2023/12/03 01:46:20;;;;;;;;;;;28.40;95.70;;;;;;5096543;28;19915;-66
2023/12/03 01:48:47;;;;;;;;;;;28.60;94.30;;;;;;5096688;28;19946;-70
2023/12/03 01:51:14;;;;;;;;;;;28.70;94.30;;;;;;5096817;28;19919;-67
2023/12/03 01:53:42;;;;;;;;;;;28.70;92.60;;;;;;5096346;28;19943;-68
2023/12/03 01:56:12;;;;;;;;;;;28.60;92.40;;;;;;5096530;28;19920;-68
2023/12/03 01:58:40;;;;;;;;;;;28.60;92.80;;;;;;5096626;28;19912;-66
2023/12/03 02:01:07;;;;;;;;;;;28.40;91.70;;;;;;5096333;28;19908;-66
2023/12/03 02:03:34;;;;;;;;;;;28.30;92.40;;;;;;5096161;28;20415;-70
2023/12/03 02:06:07;;;;;;;;;;;28.30;93.80;;;;;;5096314;28;19908;-67
2023/12/03 02:08:34;;;;;;;;;;;28.20;93.80;;;;;;5096237;28;20083;-67
2023/12/03 02:11:01;;;;;;;;;;;28.10;93.80;;;;;;5096220;28;19999;-69
2023/12/03 02:13:30;;;;;;;;;;;28.10;93.30;;;;;;5095962;28;19908;-67
2023/12/03 02:15:57;;;;;;;;;;;28.20;93.40;;;;;;5095975;28;19988;-67
2023/12/03 02:18:24;;;;;;;;;;;28.20;93.10;;;;;;5095998;28;19943;-69
2023/12/03 02:20:50;;;;;;;;;;;28.30;93.20;;;;;;5096022;28;19908;-67
2023/12/03 02:23:17;;;;;;;;;;;28.30;93.80;;;;;;5095902;28;20414;-66
2023/12/03 02:25:44;;;;;;;;;;;28.30;93.10;;;;;;5096055;28;20371;-67
2023/12/03 02:28:10;;;;;;;;;;;28.60;93.70;;;;;;5095611;28;19915;-69
2023/12/03 02:30:37;;;;;;;;;;;28.60;93.70;;;;;;5095908;28;20237;-68
2023/12/03 02:33:05;;;;;;;;;;;28.80;93.40;;;;;;5095831;28;20364;-67
2023/12/03 02:35:31;;;;;;;;;;;28.70;93.10;;;;;;5095599;28;19923;-68
2023/12/03 02:37:58;;;;;;;;;;;28.80;93.90;;;;;;5095516;28;19994;-68
2023/12/03 02:40:25;;;;;;;;;;;28.70;94.40;;;;;;5095468;28;19995;-67
2023/12/03 02:42:51;;;;;;;;;;;28.90;94.10;;;;;;5095459;28;19954;-68
2023/12/03 02:45:18;;;;;;;;;;;29.00;93.00;;;;;;5095652;28;20365;-68
2023/12/03 02:47:45;;;;;;;;;;;29.20;92.40;;;;;;5095537;28;19908;-69
2023/12/03 02:50:11;;;;;;;;;;;29.50;93.20;;;;;;5094397;28;20272;-67
2023/12/03 02:52:39;;;;;;;;;;;29.90;92.60;;;;;;5095264;28;19936;-68
2023/12/03 02:55:06;;;;;;;;;;;30.30;92.30;;;;;;5095299;28;20269;-69
2023/12/03 02:57:33;;;;;;;;;;;30.80;91.90;;;;;;5095485;28;20388;-68
2023/12/03 02:59:59;;;;;;;;;;;31.50;91.10;;;;;;5095474;28;19908;-67
2023/12/03 03:02:26;;;;;;;;;;;32.10;90.30;;;;;;5095225;28;20353;-68
2023/12/03 03:04:53;;;;;;;;;;;32.80;89.00;;;;;;5095372;28;19915;-68
2023/12/03 03:07:19;;;;;;;;;;;33.40;88.50;;;;;;5095271;28;19908;-68
2023/12/03 03:09:46;;;;;;;;;;;33.90;85.20;;;;;;5095209;28;20434;-68
2023/12/03 03:12:12;;;;;;;;;;;33.70;84.50;;;;;;5095110;28;20000;-67
2023/12/03 03:14:39;;;;;;;;;;;34.00;85.00;;;;;;5094867;28;20380;-67
2023/12/03 03:17:06;;;;;;;;;;;34.50;82.00;;;;;;5076823;28;20326;-66
2023/12/03 03:19:32;;;;;;;;;;;35.00;80.80;;;;;;5095108;28;19908;-66
2023/12/03 03:21:59;;;;;;;;;;;35.10;79.80;;;;;;5094906;28;19999;-68
2023/12/03 03:24:25;;;;;;;;;;;35.30;80.40;;;;;;5094828;28;19908;-69
2023/12/03 03:26:52;;;;;;;;;;;35.20;79.80;;;;;;5076736;28;19909;-68
2023/12/03 03:29:19;;;;;;;;;;;35.50;79.40;;;;;;5094920;28;19912;-67
2023/12/03 03:31:45;;;;;;;;;;;35.80;78.80;;;;;;5094907;28;19962;-70
2023/12/03 03:34:12;;;;;;;;;;;35.80;79.00;;;;;;5094792;28;20357;-66
2023/12/03 03:36:39;;;;;;;;;;;35.50;80.60;;;;;;5094503;28;19916;-67
2023/12/03 03:39:06;;;;;;;;;;;35.90;79.20;;;;;;5094355;28;19908;-69
2023/12/03 03:41:32;;;;;;;;;;;36.00;78.70;;;;;;5094437;28;19921;-68
2023/12/03 03:43:59;;;;;;;;;;;36.40;79.20;;;;;;5076121;28;19915;-70
2023/12/03 03:46:26;;;;;;;;;;;36.50;77.60;;;;;;5094504;28;19908;-68
2023/12/03 03:48:52;;;;;;;;;;;36.20;76.70;;;;;;5094214;28;19908;-68
2023/12/03 03:51:19;;;;;;;;;;;35.90;75.60;;;;;;5094308;28;19908;-70
2023/12/03 03:53:46;;;;;;;;;;;35.50;76.60;;;;;;5094182;28;19924;-68
2023/12/03 03:56:12;;;;;;;;;;;35.80;76.50;;;;;;5076398;28;19920;-68
2023/12/03 03:58:39;;;;;;;;;;;35.40;77.50;;;;;;5094125;28;19908;-68
2023/12/03 04:01:09;;;;;;;;;;;36.00;76.20;;;;;;5094142;28;19962;-68
2023/12/03 04:03:36;;;;;;;;;;;35.90;76.50;;;;;;5094154;28;19908;-69
2023/12/03 04:06:06;;;;;;;;;;;36.30;77.10;;;;;;5093994;28;19915;-68
2023/12/03 04:08:33;;;;;;;;;;;36.70;76.10;;;;;;5094033;28;19908;-68
2023/12/03 04:11:04;;;;;;;;;;;36.40;75.70;;;;;;5094165;28;19950;-67
2023/12/03 04:13:30;;;;;;;;;;;36.50;76.10;;;;;;5094017;28;20341;-68
2023/12/03 04:15:57;;;;;;;;;;;36.50;76.40;;;;;;5093670;28;19916;-70
2023/12/03 04:18:24;;;;;;;;;;;36.70;76.00;;;;;;5093691;28;20357;-69
2023/12/03 04:20:51;;;;;;;;;;;36.50;76.50;;;;;;5093920;28;20276;-68
2023/12/03 04:23:18;;;;;;;;;;;36.80;76.40;;;;;;5093657;28;20345;-73
2023/12/03 04:25:44;;;;;;;;;;;37.30;74.10;;;;;;5093612;28;19912;-69
2023/12/03 04:28:11;;;;;;;;;;;36.70;74.10;;;;;;5093593;28;19991;-68
2023/12/03 04:30:37;;;;;;;;;;;35.90;76.10;;;;;;5093456;28;19938;-68
2023/12/03 04:33:04;;;;;;;;;;;35.60;75.80;;;;;;5093510;28;19989;-69
2023/12/03 04:35:31;;;;;;;;;;;35.70;75.00;;;;;;5075274;28;20054;-68
2023/12/03 04:37:57;;;;;;;;;;;35.70;76.00;;;;;;5093481;28;20367;-69
2023/12/03 04:40:24;;;;;;;;;;;35.80;76.30;;;;;;5093539;28;19945;-72
2023/12/03 04:42:50;;;;;;;;;;;35.60;75.70;;;;;;5093558;28;20379;-68
2023/12/03 04:45:17;;;;;;;;;;;35.50;75.60;;;;;;5093514;28;19908;-72
2023/12/03 04:47:44;;;;;;;;;;;34.90;77.90;;;;;;5093180;28;20291;-69
2023/12/03 04:50:10;;;;;;;;;;;35.00;77.00;;;;;;5093177;28;19911;-68
2023/12/03 04:52:37;;;;;;;;;;;35.40;76.60;;;;;;5093074;28;20004;-68
2023/12/03 04:55:04;;;;;;;;;;;35.80;76.50;;;;;;5093137;28;19916;-68
2023/12/03 04:57:30;;;;;;;;;;;35.90;75.30;;;;;;5093216;28;19943;-68
2023/12/03 04:59:57;;;;;;;;;;;35.00;76.70;;;;;;5093042;28;20379;-68
2023/12/03 05:02:23;;;;;;;;;;;34.50;77.30;;;;;;5093188;28;20434;-69
2023/12/03 05:04:50;;;;;;;;;;;34.40;79.10;;;;;;5093033;28;19915;-68
2023/12/03 05:07:17;;;;;;;;;;;34.80;77.50;;;;;;5093083;28;20424;-70
2023/12/03 05:09:43;;;;;;;;;;;35.00;76.40;;;;;;5093217;28;19908;-68
2023/12/03 05:12:10;;;;;;;;;;;35.40;76.40;;;;;;5093172;28;19908;-67
2023/12/03 05:14:37;;;;;;;;;;;35.40;75.30;;;;;;5092119;28;19962;-68
2023/12/03 05:17:04;;;;;;;;;;;35.20;74.70;;;;;;5093016;28;20254;-68
2023/12/03 05:19:30;;;;;;;;;;;34.70;75.80;;;;;;5092959;28;19969;-69
2023/12/03 05:21:57;;;;;;;;;;;34.40;76.80;;;;;;5093293;28;19950;-68
2023/12/03 05:24:23;;;;;;;;;;;34.40;76.80;;;;;;5092852;28;20393;-69
2023/12/03 05:26:50;;;;;;;;;;;34.40;76.20;;;;;;5092825;28;20006;-68
2023/12/03 05:29:17;;;;;;;;;;;34.40;76.20;;;;;;5092661;28;20065;-69
2023/12/03 05:31:45;;;;;;;;;;;34.40;76.50;;;;;;5092747;28;20368;-69
2023/12/03 05:34:12;;;;;;;;;;;34.30;77.90;;;;;;5092901;28;19918;-69
2023/12/03 05:36:38;;;;;;;;;;;34.00;76.80;;;;;;5092769;28;19920;-68
2023/12/03 05:39:05;;;;;;;;;;;33.60;77.90;;;;;;5092455;28;19908;-67
2023/12/03 05:41:37;;;;;;;;;;;32.90;79.40;;;;;;5092745;28;19912;-69
2023/12/03 05:44:04;;;;;;;;;;;32.20;80.90;;;;;;5092674;28;20373;-74
2023/12/03 05:46:31;;;;;;;;;;;31.90;81.60;;;;;;5092516;28;19911;-69
2023/12/03 05:48:58;;;;;;;;;;;31.20;82.40;;;;;;5092392;28;19916;-67
2023/12/03 05:51:24;;;;;;;;;;;30.50;85.20;;;;;;5092616;28;20322;-70
2023/12/03 05:53:51;;;;;;;;;;;30.30;86.50;;;;;;5092488;28;20325;-67
2023/12/03 05:56:17;;;;;;;;;;;30.00;87.60;;;;;;5092418;28;19916;-66
2023/12/03 05:58:44;;;;;;;;;;;29.70;89.30;;;;;;5092521;28;19920;-67
2023/12/03 06:01:11;;;;;;;;;;;29.30;90.30;;;;;;5092557;28;19953;-66
2023/12/03 06:03:37;;;;;;;;;;;28.80;90.40;;;;;;5092505;28;19908;-67
2023/12/03 06:06:04;;;;;;;;;;;28.60;90.50;;;;;;5092560;28;19965;-67
2023/12/03 06:08:31;;;;;;;;;;;28.20;90.70;;;;;;5092288;28;19908;-67
2023/12/03 06:10:57;;;;;;;;;;;28.00;91.30;;;;;;5092164;28;19908;-69
2023/12/03 06:13:24;;;;;;;;;;;27.40;92.80;;;;;;5092361;28;19915;-72
2023/12/03 06:15:50;;;;;;;;;;;27.10;94.00;;;;;;5092052;28;19917;-68
2023/12/03 06:18:17;;;;;;;;;;;27.10;94.50;;;;;;5092335;28;19909;-67
2023/12/03 06:20:43;;;;;;;;;;;27.00;94.50;;;;;;5092440;28;20365;-70
2023/12/03 06:23:11;;;;;;;;;;;26.90;95.10;;;;;;5092166;28;19908;-68
2023/12/03 06:25:38;;;;;;;;;;;26.90;95.20;;;;;;5094100;28;19919;-68
2023/12/03 06:28:04;;;;;;;;;;;26.80;95.30;;;;;;5095757;28;20259;-68
2023/12/03 06:30:31;;;;;;;;;;;26.80;95.60;;;;;;5096043;28;19996;-67
2023/12/03 06:32:58;;;;;;;;;;;26.40;95.60;;;;;;5095952;28;19961;-67
2023/12/03 06:35:24;;;;;;;;;;;26.30;95.80;;;;;;5095789;28;19955;-68
2023/12/03 06:37:51;;;;;;;;;;;26.10;96.00;;;;;;5095775;28;20034;-67
2023/12/03 06:40:17;;;;;;;;;;;26.10;96.50;;;;;;5095621;28;20375;-67
2023/12/03 06:42:44;;;;;;;;;;;26.00;96.60;;;;;;5095610;28;20007;-69
2023/12/03 06:45:12;;;;;;;;;;;25.90;97.20;;;;;;5095344;28;20275;-68
2023/12/03 06:47:39;;;;;;;;;;;25.70;97.40;;;;;;5095602;28;19916;-68
2023/12/03 06:50:06;;;;;;;;;;;25.80;97.60;;;;;;5095465;28;19935;-68
2023/12/03 06:52:32;;;;;;;;;;;25.80;97.80;;;;;;5095466;28;20385;-69
2023/12/03 06:54:59;;;;;;;;;;;25.70;97.60;;;;;;5095474;28;19916;-68
2023/12/03 06:57:25;;;;;;;;;;;25.70;97.40;;;;;;5095346;28;20361;-69
2023/12/03 06:59:53;;;;;;;;;;;25.40;98.10;;;;;;5095144;28;19908;-67
2023/12/03 07:02:19;;;;;;;;;;;25.20;98.50;;;;;;5095382;28;19908;-69
2023/12/03 07:04:46;;;;;;;;;;;25.00;98.80;;;;;;5095317;28;19908;-69
2023/12/03 07:07:13;;;;;;;;;;;24.90;98.90;;;;;;5095175;28;19908;-68
2023/12/03 07:09:40;;;;;;;;;;;24.80;99.50;;;;;;5095063;28;19908;-68
2023/12/03 07:12:07;;;;;;;;;;;24.60;99.90;;;;;;5094677;28;19908;-67
2023/12/03 07:14:34;;;;;;;;;;;24.40;99.90;;;;;;5095242;28;19912;-67
2023/12/03 07:17:01;;;;;;;;;;;24.20;99.90;;;;;;5095269;28;19920;-68
2023/12/03 07:19:27;;;;;;;;;;;24.00;99.90;;;;;;5094412;28;19911;-69
2023/12/03 07:21:54;;;;;;;;;;;23.90;99.90;;;;;;5113468;28;20425;-67
2023/12/03 07:24:21;;;;;;;;;;;23.90;99.90;;;;;;5114658;28;20357;-69
2023/12/03 07:26:48;;;;;;;;;;;23.90;99.90;;;;;;5109955;28;19926;-68
2023/12/03 07:29:17;;;;;;;;;;;23.80;99.90;;;;;;5111262;28;19912;-68
2023/12/03 07:31:44;;;;;;;;;;;23.80;99.90;;;;;;5114483;28;19939;-67
2023/12/03 07:34:12;;;;;;;;;;;23.70;99.90;;;;;;5115105;28;19908;-69
2023/12/03 07:36:38;;;;;;;;;;;23.60;99.90;;;;;;5113853;28;19949;-67
2023/12/03 07:39:05;;;;;;;;;;;23.40;99.90;;;;;;5105232;28;19915;-69
2023/12/03 07:41:32;;;;;;;;;;;23.20;99.90;;;;;;5114175;28;19976;-70
2023/12/03 07:43:58;;;;;;;;;;;22.90;99.90;;;;;;5114331;28;19908;-72
2023/12/03 07:46:25;;;;;;;;;;;22.70;99.90;;;;;;5114965;27;20002;-69
2023/12/03 07:48:52;;;;;;;;;;;22.60;99.90;;;;;;5114953;27;19911;-69
2023/12/03 07:51:18;;;;;;;;;;;22.40;99.90;;;;;;5121761;27;19908;-68
2023/12/03 07:53:45;;;;;;;;;;;22.20;99.90;;;;;;5114334;28;20365;-69
2023/12/03 07:56:11;;;;;;;;;;;22.00;99.90;;;;;;5115877;27;19920;-67
2023/12/03 07:58:38;;;;;;;;;;;21.90;99.90;;;;;;5115003;27;19916;-68
2023/12/03 08:01:05;;;;;;;;;;;21.80;99.90;;;;;;5115458;27;19969;-69
2023/12/03 08:03:31;;;;;;;;;;;21.80;99.90;;;;;;5114099;28;19912;-67
2023/12/03 08:05:58;;;;;;;;;;;21.80;99.90;;;;;;5114285;28;20387;-70
2023/12/03 08:08:25;;;;;;;;;;;21.90;99.90;;;;;;5112390;28;20002;-68
2023/12/03 08:10:52;;;;;;;;;;;21.80;99.90;;;;;;5112630;28;19911;-69
2023/12/03 08:13:19;;;;;;;;;;;21.80;99.90;;;;;;5111908;28;19918;-69
2023/12/03 08:15:45;;;;;;;;;;;21.80;99.90;;;;;;5111870;27;20000;-70
2023/12/03 08:18:12;;;;;;;;;;;21.90;99.90;;;;;;5111632;28;19980;-69
2023/12/03 08:20:38;;;;;;;;;;;21.90;99.90;;;;;;5115315;27;20280;-68
2023/12/03 08:23:05;;;;;;;;;;;21.90;99.90;;;;;;5113305;28;19907;-69
2023/12/03 08:25:32;;;;;;;;;;;21.80;99.90;;;;;;5110668;28;19981;-71
2023/12/03 08:27:58;;;;;;;;;;;21.80;99.90;;;;;;5112936;28;20650;-69
2023/12/03 08:30:25;;;;;;;;;;;21.90;99.90;;;;;;5113067;28;19912;-69
2023/12/03 08:32:52;;;;;;;;;;;21.90;99.90;;;;;;5075021;28;19912;-68
2023/12/03 08:35:19;;;;;;;;;;;21.80;99.90;;;;;;5107821;27;19919;-72
2023/12/03 08:37:45;;;;;;;;;;;21.80;99.90;;;;;;5107921;28;20383;-70
2023/12/03 08:40:13;;;;;;;;;;;21.70;99.90;;;;;;5113400;28;19911;-72
2023/12/03 08:42:41;;;;;;;;;;;21.70;99.90;;;;;;5113397;28;19931;-69
2023/12/03 08:45:08;;;;;;;;;;;21.70;99.90;;;;;;5113346;28;19942;-71
2023/12/03 08:47:35;;;;;;;;;;;21.70;99.90;;;;;;5107810;27;19919;-72
2023/12/03 08:50:01;;;;;;;;;;;21.60;99.90;;;;;;5112872;28;19911;-70
2023/12/03 08:52:28;;;;;;;;;;;21.40;99.90;;;;;;5113174;28;19964;-71
2023/12/03 08:54:55;;;;;;;;;;;21.40;99.90;;;;;;5113207;27;19916;-73
2023/12/03 08:57:21;;;;;;;;;;;21.30;99.90;;;;;;5113029;28;19919;-73
2023/12/03 08:59:50;;;;;;;;;;;21.20;99.90;;;;;;5112991;28;20397;-73
2023/12/03 09:02:16;;;;;;;;;;;21.10;99.90;;;;;;5113059;28;19908;-71
2023/12/03 09:04:43;;;;;;;;;;;21.10;99.90;;;;;;5113141;28;19912;-70
2023/12/03 09:07:10;;;;;;;;;;;21.10;99.90;;;;;;5113299;28;19908;-69
2023/12/03 09:09:36;;;;;;;;;;;21.00;99.90;;;;;;5113485;27;19912;-73
2023/12/03 09:12:03;;;;;;;;;;;21.10;99.90;;;;;;5114081;27;19947;-68
2023/12/03 09:14:30;;;;;;;;;;;21.00;99.90;;;;;;5113052;28;20002;-67
2023/12/03 09:16:58;;;;;;;;;;;21.00;99.90;;;;;;5112649;28;19911;-69
2023/12/03 09:19:25;;;;;;;;;;;20.90;99.90;;;;;;5112193;28;19911;-68
2023/12/03 09:21:52;;;;;;;;;;;21.00;99.90;;;;;;5113467;28;19930;-68
2023/12/03 09:24:19;;;;;;;;;;;21.00;99.90;;;;;;5117397;28;20261;-69
2023/12/03 09:26:47;;;;;;;;;;;21.00;99.90;;;;;;5094101;28;19908;-67
2023/12/03 09:29:14;;;;;;;;;;;20.90;99.90;;;;;;5074422;28;20284;-68
2023/12/03 09:31:40;;;;;;;;;;;21.00;99.90;;;;;;5131558;28;19956;-69
2023/12/03 09:34:08;;;;;;;;;;;21.00;99.90;;;;;;5133522;28;19960;-70
2023/12/03 09:36:35;;;;;;;;;;;20.90;99.90;;;;;;5133413;28;19926;-68
2023/12/03 09:39:04;;;;;;;;;;;20.90;99.90;;;;;;5133266;28;19908;-68
2023/12/03 09:41:34;;;;;;;;;;;20.90;99.90;;;;;;5121774;28;19994;-71
2023/12/03 09:44:08;;;;;;;;;;;20.90;99.90;;;;;;5110458;28;20361;-67
2023/12/03 09:46:37;;;;;;;;;;;20.90;99.90;;;;;;5112712;28;20437;-67
2023/12/03 09:49:07;;;;;;;;;;;21.00;99.90;;;;;;5113071;28;20353;-67
2023/12/03 09:51:34;;;;;;;;;;;20.90;99.90;;;;;;5113612;28;19919;-66
2023/12/03 09:54:01;;;;;;;;;;;21.00;99.90;;;;;;5112747;28;20022;-68
2023/12/03 09:56:29;;;;;;;;;;;21.00;99.90;;;;;;5117519;28;20076;-68
2023/12/03 09:58:56;;;;;;;;;;;21.00;99.90;;;;;;5132932;27;19912;-68
2023/12/03 10:01:33;;;;;;;;;;;;;;;;;;;;;
2023/12/03 10:04:00;;;;;;;;;;;21.00;99.90;;;;;;5123727;27;20367;-69
2023/12/03 10:06:27;;;;;;;;;;;21.10;99.90;;;;;;5136657;27;19912;-68
2023/12/03 10:08:54;;;;;;;;;;;21.00;99.90;;;;;;5136469;27;19907;-69
2023/12/03 10:11:28;;;;;;;;;;;21.00;99.90;;;;;;5123762;27;19961;-68
2023/12/03 10:14:01;;;;;;;;;;;21.00;99.90;;;;;;5116401;27;19918;-73
2023/12/03 10:16:28;;;;;;;;;;;21.00;99.90;;;;;;5116507;28;20014;-69
2023/12/03 10:18:55;;;;;;;;;;;21.00;99.90;;;;;;5116109;28;19941;-68
2023/12/03 10:21:22;;;;;;;;;;;20.90;99.90;;;;;;5116671;28;19947;-70
2023/12/03 10:24:02;;;;;;;;;;;21.00;99.90;;;;;;5116361;28;19908;-67
2023/12/03 10:26:30;;;;;;;;;;;21.00;99.90;;;;;;5116069;28;19908;-69
2023/12/03 10:28:57;;;;;;;;;;;21.00;99.90;;;;;;5116060;27;19980;-69
2023/12/03 10:31:24;;;;;;;;;;;20.90;99.90;;;;;;5115888;28;20276;-72
2023/12/03 10:33:52;;;;;;;;;;;21.00;99.90;;;;;;5116134;28;19908;-67
2023/12/03 10:36:19;;;;;;;;;;;21.00;99.90;;;;;;5115796;28;19923;-68
2023/12/03 10:38:45;;;;;;;;;;;21.10;99.90;;;;;;5116252;28;19947;-69
2023/12/03 10:41:13;;;;;;;;;;;21.10;99.90;;;;;;5116160;28;20096;-71
2023/12/03 10:43:41;;;;;;;;;;;21.20;99.90;;;;;;5115960;28;19933;-69
2023/12/03 10:46:11;;;;;;;;;;;21.10;99.90;;;;;;5115575;28;19916;-69
2023/12/03 10:48:38;;;;;;;;;;;21.10;99.90;;;;;;5115708;28;19904;-66
2023/12/03 10:51:06;;;;;;;;;;;21.10;99.90;;;;;;5115682;28;19925;-69
2023/12/03 10:53:33;;;;;;;;;;;21.10;99.90;;;;;;5115627;27;20378;-70
2023/12/03 10:56:04;;;;;;;;;;;21.10;99.90;;;;;;5115529;28;20045;-66
2023/12/03 10:58:32;;;;;;;;;;;21.10;99.90;;;;;;5115617;28;19950;-69
2023/12/03 11:01:06;;;;;;;;;;;21.20;99.90;;;;;;5115331;28;20011;-67
2023/12/03 11:03:33;;;;;;;;;;;21.20;99.90;;;;;;5115474;27;19918;-69
2023/12/03 11:06:02;;;;;;;;;;;21.10;99.90;;;;;;5115463;28;19934;-68
2023/12/03 11:08:30;;;;;;;;;;;21.10;99.90;;;;;;5115612;28;19908;-68
2023/12/03 11:10:57;;;;;;;;;;;21.10;99.90;;;;;;5114777;28;20417;-67
2023/12/03 11:13:23;;;;;;;;;;;21.10;99.90;;;;;;5115205;28;19908;-67
2023/12/03 11:15:51;;;;;;;;;;;21.00;99.90;;;;;;5115399;28;19916;-69
2023/12/03 11:18:19;;;;;;;;;;;21.00;99.90;;;;;;5115367;28;19918;-67
2023/12/03 11:20:47;;;;;;;;;;;21.00;99.90;;;;;;5115226;28;19908;-68
2023/12/03 11:23:24;;;;;;;;;;;21.10;99.90;;;;;;5114933;28;19953;-66
2023/12/03 11:25:57;;;;;;;;;;;21.10;99.90;;;;;;5115295;28;19911;-68
2023/12/03 11:28:26;;;;;;;;;;;21.10;99.90;;;;;;5114668;28;19951;-70
2023/12/03 11:30:54;;;;;;;;;;;21.10;99.90;;;;;;5113900;28;19908;-66
2023/12/03 11:33:21;;;;;;;;;;;21.00;99.90;;;;;;5114971;28;19911;-71
2023/12/03 11:35:50;;;;;;;;;;;21.00;99.90;;;;;;5114715;28;19962;-68
2023/12/03 11:38:23;;;;;;;;;;;21.00;99.90;;;;;;5110305;27;19964;-70
2023/12/03 11:40:50;;;;;;;;;;;21.00;99.90;;;;;;5114939;28;19931;-67
2023/12/03 11:43:26;;;;;;;;;;;20.90;99.90;;;;;;5126061;27;19912;-68
2023/12/03 11:45:53;;;;;;;;;;;20.90;99.90;;;;;;5135139;27;19929;-66
2023/12/03 11:48:21;;;;;;;;;;;20.80;99.90;;;;;;5135432;27;19907;-71
2023/12/03 11:50:48;;;;;;;;;;;20.90;99.90;;;;;;5135291;27;20271;-70
2023/12/03 11:53:15;;;;;;;;;;;20.90;99.90;;;;;;5133003;27;19923;-67
2023/12/03 11:55:49;;;;;;;;;;;20.90;99.90;;;;;;5134364;27;19927;-67
2023/12/03 11:58:17;;;;;;;;;;;20.90;99.90;;;;;;5122815;27;19919;-68
2023/12/03 12:00:46;;;;;;;;;;;20.90;99.90;;;;;;5094241;28;19912;-68
2023/12/03 12:03:13;;;;;;;;;;;21.00;99.90;;;;;;5108013;28;20348;-68
2023/12/03 12:05:46;;;;;;;;;;;21.00;99.90;;;;;;5114434;28;19908;-74
2023/12/03 12:08:22;;;;;;;;;;;20.90;99.90;;;;;;5114224;28;20002;-68
2023/12/03 12:10:50;;;;;;;;;;;20.90;99.90;;;;;;5114401;28;19930;-70
2023/12/03 12:13:18;;;;;;;;;;;20.90;99.90;;;;;;5114240;28;19908;-68
2023/12/03 12:15:45;;;;;;;;;;;20.80;99.90;;;;;;5114059;28;19920;-65
2023/12/03 12:18:12;;;;;;;;;;;20.80;99.90;;;;;;5123490;27;19918;-70
2023/12/03 12:20:38;;;;;;;;;;;20.70;99.90;;;;;;5134615;27;19911;-66
2023/12/03 12:23:05;;;;;;;;;;;20.70;99.90;;;;;;5134701;27;20368;-66
2023/12/03 12:25:32;;;;;;;;;;;20.60;99.90;;;;;;5134701;27;19908;-70
2023/12/03 12:27:58;;;;;;;;;;;20.60;99.90;;;;;;5134563;27;20394;-69
2023/12/03 12:30:28;;;;;;;;;;;20.60;99.90;;;;;;5124780;27;20018;-70
2023/12/03 12:32:54;;;;;;;;;;;20.60;99.90;;;;;;5114044;28;19923;-69
2023/12/03 12:35:22;;;;;;;;;;;20.70;99.90;;;;;;5113761;28;20378;-67
2023/12/03 12:38:02;;;;;;;;;;;20.70;99.90;;;;;;5113292;28;19947;-70
2023/12/03 12:40:30;;;;;;;;;;;20.70;99.90;;;;;;5113537;28;20439;-71
2023/12/03 12:43:10;;;;;;;;;;;20.60;99.90;;;;;;5113928;28;19912;-67
2023/12/03 12:45:38;;;;;;;;;;;20.60;99.90;;;;;;5113546;28;19991;-68
2023/12/03 12:48:05;;;;;;;;;;;20.60;99.90;;;;;;5113332;28;19908;-73
2023/12/03 12:50:42;;;;;;;;;;;20.50;99.90;;;;;;5113457;28;20375;-71
2023/12/03 12:53:08;;;;;;;;;;;20.60;99.90;;;;;;5113290;27;20384;-70
2023/12/03 12:55:35;;;;;;;;;;;20.50;99.90;;;;;;5113206;28;20245;-68
2023/12/03 12:58:04;;;;;;;;;;;20.60;99.90;;;;;;5113387;28;19912;-70
2023/12/03 13:00:31;;;;;;;;;;;20.60;99.90;;;;;;5113592;28;19954;-68
2023/12/03 13:02:57;;;;;;;;;;;20.50;99.90;;;;;;5113517;28;19908;-69
2023/12/03 13:05:25;;;;;;;;;;;20.60;99.90;;;;;;5113285;28;20350;-70
2023/12/03 13:07:52;;;;;;;;;;;20.70;99.90;;;;;;5112795;28;19908;-68
2023/12/03 13:10:20;;;;;;;;;;;20.60;99.90;;;;;;5112845;28;19912;-67
2023/12/03 13:12:47;;;;;;;;;;;20.50;99.90;;;;;;5113358;28;19907;-68
2023/12/03 13:15:13;;;;;;;;;;;20.60;99.90;;;;;;5113259;28;20417;-70
2023/12/03 13:17:59;;;;;;;;;;;20.60;99.90;;;;;;5113211;28;19916;-70
2023/12/03 13:20:25;;;;;;;;;;;20.60;99.90;;;;;;5113085;28;19980;-69
2023/12/03 13:22:53;;;;;;;;;;;20.60;99.90;;;;;;5113101;28;19907;-71
2023/12/03 13:25:20;;;;;;;;;;;20.60;99.90;;;;;;5113081;28;19917;-69
2023/12/03 13:27:46;;;;;;;;;;;20.50;99.90;;;;;;5112921;28;19908;-70
2023/12/03 13:30:13;;;;;;;;;;;20.50;99.90;;;;;;5112941;28;19908;-70
2023/12/03 13:32:41;;;;;;;;;;;20.40;99.90;;;;;;5113268;28;19919;-68
2023/12/03 13:35:08;;;;;;;;;;;20.40;99.90;;;;;;5114186;28;20006;-68
2023/12/03 13:37:35;;;;;;;;;;;20.30;99.90;;;;;;5117094;28;19916;-70
2023/12/03 13:40:06;;;;;;;;;;;20.40;99.90;;;;;;5117290;27;19950;-71
2023/12/03 13:42:33;;;;;;;;;;;20.30;99.90;;;;;;5117041;28;20367;-71
2023/12/03 13:45:02;;;;;;;;;;;20.30;99.90;;;;;;5117167;28;19915;-70
2023/12/03 13:47:30;;;;;;;;;;;20.30;99.90;;;;;;5117089;28;19955;-72
2023/12/03 13:49:57;;;;;;;;;;;20.30;99.90;;;;;;5117077;28;20429;-70
2023/12/03 13:52:23;;;;;;;;;;;20.30;99.90;;;;;;5116914;28;19951;-68
2023/12/03 13:54:50;;;;;;;;;;;20.40;99.90;;;;;;5116727;28;20022;-72
2023/12/03 13:57:16;;;;;;;;;;;20.50;99.90;;;;;;5116729;28;19958;-70
2023/12/03 13:59:44;;;;;;;;;;;20.40;99.90;;;;;;5116779;28;19908;-73
2023/12/03 14:02:10;;;;;;;;;;;20.50;99.90;;;;;;5117629;27;20360;-72
2023/12/03 14:04:37;;;;;;;;;;;20.40;99.90;;;;;;5116560;28;20334;-72
2023/12/03 14:07:04;;;;;;;;;;;20.50;99.90;;;;;;5116434;28;19908;-66
2023/12/03 14:09:31;;;;;;;;;;;20.40;99.90;;;;;;5116536;28;19919;-68
2023/12/03 14:11:58;;;;;;;;;;;20.40;99.90;;;;;;5116726;28;20045;-68
2023/12/03 14:14:25;;;;;;;;;;;20.30;99.90;;;;;;5116700;28;19912;-72
2023/12/03 14:16:58;;;;;;;;;;;20.30;99.90;;;;;;5116571;28;19923;-67
2023/12/03 14:19:25;;;;;;;;;;;20.30;99.90;;;;;;5116582;28;20372;-72